Weather reports worldwide

Advertisment
Fuengirola, Spain (8480): temperature & dewpoint: 20.09.2018 05:00:00 - 26.09.2018 05:00:00 (CEST)Fuengirola, Spain (8480): wind speed & gusts: 20.09.2018 05:00:00 - 26.09.2018 05:00:00 (CEST)Fuengirola, Spain (8480): wind direction: 20.09.2018 05:00:00 - 26.09.2018 05:00:00 (CEST)Fuengirola, Spain (8480): precipitation: 20.09.2018 05:00:00 - 26.09.2018 05:00:00 (CEST)
Date & Time tt [°C] td [°C] ff [km/h] ff [kn] fx [km/h] fx [kn] dd rr [mm]
26.09.2018 05:00:00 24,7 23,5 5 3 13 7 SE 0,0
26.09.2018 04:00:00 25,0 23,6 10 5 18 10 SE 0,0
26.09.2018 03:00:00 25,2 23,8 11 6 21 12 ESE 0,0
26.09.2018 02:00:00 25,0 23,8 11 6 17 9 ESE -
26.09.2018 01:00:00 25,2 23,6 9 5 17 9 E 0,0
26.09.2018 00:00:00 25,1 23,5 9 5 16 8 E 0,0
25.09.2018 23:00:00 25,2 23,3 9 5 14 8 ENE 0,0
25.09.2018 22:00:00 25,4 23,3 8 4 13 7 ENE 0,0
25.09.2018 21:00:00 25,6 22,9 5 3 11 6 ENE 0,0
25.09.2018 20:00:00 - - - - - - - -
25.09.2018 19:00:00 26,8 22,8 8 4 12 6 ENE 0,0
25.09.2018 18:00:00 27,2 23,0 5 3 13 7 ESE 0,0
25.09.2018 17:00:00 27,0 22,8 4 2 10 6 ESE 0,0
25.09.2018 16:00:00 26,6 23,3 4 2 10 5 E 0,0
25.09.2018 15:00:00 26,8 23,7 4 2 12 6 E 0,0
25.09.2018 14:00:00 26,8 23,5 5 3 24 13 SE -
25.09.2018 13:00:00 26,8 22,6 5 3 14 8 ESE 0,0
25.09.2018 12:00:00 26,4 21,2 11 6 24 13 E 0,0
25.09.2018 11:00:00 25,8 20,4 11 6 16 9 E 0,0
25.09.2018 10:00:00 25,5 20,3 11 6 18 10 E 0,0
25.09.2018 09:00:00 23,7 17,2 1 0 15 8 NW 0,0
25.09.2018 08:00:00 24,6 19,7 9 5 19 10 ENE -
25.09.2018 07:00:00 23,2 15,0 3 2 9 5 NW 0,0
25.09.2018 06:00:00 23,5 14,8 5 3 7 4 NNW 0,0
25.09.2018 05:00:00 24,0 15,0 4 2 11 6 N 0,0
25.09.2018 04:00:00 23,5 14,5 5 3 10 5 NW 0,0
25.09.2018 03:00:00 24,1 14,5 4 2 8 5 NW 0,0
25.09.2018 02:00:00 24,3 15,0 5 3 8 4 NW -
25.09.2018 01:00:00 24,7 15,6 4 2 7 4 WNW 0,0
25.09.2018 00:00:00 25,0 16,2 3 1 9 5 NW 0,0
24.09.2018 23:00:00 25,2 17,7 4 2 8 4 WNW 0,0
24.09.2018 22:00:00 25,7 19,3 4 2 10 5 NE 0,0
24.09.2018 21:00:00 25,9 21,1 3 2 10 5 E 0,0
24.09.2018 20:00:00 26,6 21,6 7 4 14 8 ESE -
24.09.2018 19:00:00 27,1 22,1 9 5 12 6 ESE 0,0
24.09.2018 18:00:00 27,0 22,4 3 2 9 5 ESE 0,0
24.09.2018 17:00:00 26,9 22,9 4 2 10 6 S 0,0
24.09.2018 16:00:00 26,5 22,6 8 4 15 8 SSW 0,0
24.09.2018 15:00:00 25,8 23,1 8 5 14 8 SSW 0,0
24.09.2018 14:00:00 26,4 24,1 6 3 9 5 SSW -
24.09.2018 13:00:00 26,2 23,3 3 2 8 5 S 0,0
24.09.2018 12:00:00 26,0 22,7 4 2 9 5 S 0,0
24.09.2018 11:00:00 25,9 20,2 4 2 11 6 SSW 0,0
24.09.2018 10:00:00 24,4 16,1 4 2 14 8 WNW 0,0
24.09.2018 09:00:00 23,0 16,1 6 3 17 9 WNW 0,0
24.09.2018 08:00:00 22,9 16,4 8 5 11 6 NW -
24.09.2018 07:00:00 22,8 16,1 5 3 10 5 NW 0,0
24.09.2018 06:00:00 23,0 16,1 5 3 10 5 NW 0,0
24.09.2018 05:00:00 23,0 15,6 7 4 11 6 NW 0,0
24.09.2018 04:00:00 23,5 16,1 5 3 14 8 WNW 0,0
24.09.2018 03:00:00 23,9 16,2 5 3 16 9 NW 0,0
24.09.2018 02:00:00 24,0 16,5 6 4 11 6 WNW -
24.09.2018 01:00:00 24,7 16,9 5 3 8 4 NW 0,0
24.09.2018 00:00:00 25,2 17,4 4 2 7 4 NW 0,0
23.09.2018 23:00:00 26,0 19,2 2 1 13 7 E 0,0
23.09.2018 22:00:00 26,5 19,1 6 3 17 9 E 0,0
23.09.2018 21:00:00 26,7 19,1 10 5 19 10 ENE 0,0
23.09.2018 20:00:00 27,0 19,9 15 8 26 14 E -
23.09.2018 19:00:00 27,3 20,4 15 8 22 12 E 0,0
23.09.2018 18:00:00 27,5 21,8 14 7 21 11 E 0,0
23.09.2018 17:00:00 27,6 20,7 14 8 21 11 E 0,0
23.09.2018 16:00:00 27,5 19,6 9 5 15 8 E 0,0
23.09.2018 15:00:00 27,6 19,9 10 5 15 8 E 0,0
23.09.2018 14:00:00 27,2 19,5 10 5 19 10 ESE -
23.09.2018 13:00:00 27,1 20,2 8 4 16 9 E 0,0
23.09.2018 12:00:00 26,3 19,9 9 5 14 8 E 0,0
23.09.2018 11:00:00 25,4 18,8 5 3 9 5 ENE 0,0
23.09.2018 10:00:00 23,7 16,2 3 2 10 5 NW 0,0
23.09.2018 09:00:00 22,4 15,0 7 4 13 7 NW 0,0
23.09.2018 08:00:00 22,0 15,4 8 4 13 7 NW -
23.09.2018 07:00:00 22,1 15,5 6 3 11 6 NW 0,0
23.09.2018 06:00:00 22,3 15,4 5 3 11 6 WNW 0,0
23.09.2018 05:00:00 22,7 15,3 6 4 11 6 NW 0,0
23.09.2018 04:00:00 22,7 15,8 4 2 8 4 NW 0,0
23.09.2018 03:00:00 23,1 16,6 4 2 13 7 NNW 0,0
23.09.2018 02:00:00 23,5 17,0 3 2 8 4 NNW -
23.09.2018 01:00:00 23,9 17,6 3 1 6 4 NNW 0,0
23.09.2018 00:00:00 24,3 18,9 3 1 8 4 NW 0,0
22.09.2018 23:00:00 24,8 18,7 3 1 12 6 NNE 0,0
22.09.2018 22:00:00 25,0 20,7 9 5 14 8 E 0,0
22.09.2018 21:00:00 25,3 21,6 10 5 36 19 E 0,0
22.09.2018 20:00:00 25,6 22,1 9 5 14 8 E -
22.09.2018 19:00:00 26,2 22,9 8 4 11 6 E 0,0
22.09.2018 18:00:00 26,1 23,2 8 4 13 7 E 0,0
22.09.2018 17:00:00 26,1 23,8 8 4 14 7 E 0,0
22.09.2018 16:00:00 25,9 23,9 11 6 17 9 ESE 0,0
22.09.2018 15:00:00 25,7 23,9 11 6 22 12 E 0,0
22.09.2018 14:00:00 25,4 23,8 17 9 23 12 ESE -
22.09.2018 13:00:00 25,2 23,6 13 7 19 10 ESE 0,0
22.09.2018 12:00:00 24,6 23,2 13 7 16 9 E 0,0
22.09.2018 11:00:00 24,3 22,9 8 4 12 6 E 0,0
22.09.2018 10:00:00 23,2 20,0 3 2 8 4 ENE 0,0
22.09.2018 09:00:00 21,7 17,3 5 3 9 5 NNW 0,0
22.09.2018 08:00:00 21,7 17,3 3 2 13 7 NW -
22.09.2018 07:00:00 21,9 17,5 5 3 10 6 WNW 0,0
22.09.2018 06:00:00 22,1 18,3 6 3 9 5 NW 0,0
22.09.2018 05:00:00 22,4 18,6 3 1 9 5 NW 0,0
22.09.2018 04:00:00 22,2 18,4 4 2 9 5 NW 0,0
22.09.2018 03:00:00 22,8 20,0 0 0 12 6 N 0,0
22.09.2018 02:00:00 22,9 20,4 6 3 9 5 W -
22.09.2018 01:00:00 23,5 21,6 4 2 8 5 W 0,0
22.09.2018 00:00:00 23,8 22,1 4 2 7 4 W 0,0
21.09.2018 23:00:00 24,3 23,4 0 0 4 2 S 0,0
21.09.2018 22:00:00 24,5 23,3 1 1 5 3 E 0,0
21.09.2018 21:00:00 24,8 23,2 2 1 4 2 SE 0,0
21.09.2018 20:00:00 25,5 23,6 2 1 7 4 SE -
21.09.2018 19:00:00 25,9 23,6 5 3 9 5 SE 0,0
21.09.2018 18:00:00 25,9 23,8 6 3 10 5 SSE 0,0
21.09.2018 17:00:00 25,8 24,0 5 3 12 6 S 0,0
21.09.2018 16:00:00 25,6 24,0 8 4 12 6 S 0,0
21.09.2018 15:00:00 25,1 23,9 7 4 13 7 S 0,0
21.09.2018 14:00:00 24,9 23,7 9 5 13 7 S -
21.09.2018 13:00:00 24,5 23,3 8 4 13 7 SSW 0,0
21.09.2018 12:00:00 24,3 22,7 8 5 12 6 SSW 0,0
21.09.2018 11:00:00 24,2 21,9 7 4 11 6 SSW 0,0
21.09.2018 10:00:00 23,2 20,2 4 2 10 6 W 0,0
21.09.2018 09:00:00 22,7 19,9 6 3 10 5 WNW 0,0
21.09.2018 08:00:00 22,8 20,1 5 3 10 6 NW -
21.09.2018 07:00:00 22,8 20,1 5 3 17 9 WNW 0,0
21.09.2018 06:00:00 22,8 20,1 6 4 16 9 WNW 0,0
21.09.2018 05:00:00 23,0 20,1 5 3 11 6 WNW 0,0
21.09.2018 04:00:00 23,2 20,3 5 3 10 5 WNW 0,0
21.09.2018 03:00:00 23,5 20,6 3 2 7 4 NNW 0,0
21.09.2018 02:00:00 23,6 20,7 3 2 10 5 NNW -
21.09.2018 01:00:00 24,1 21,6 4 2 9 5 NW 0,0
21.09.2018 00:00:00 24,2 21,7 0 0 6 3 NNE 0,0
20.09.2018 23:00:00 24,9 23,3 3 2 9 5 E 0,0
20.09.2018 22:00:00 25,0 23,2 1 1 4 2 SSE 0,0
20.09.2018 21:00:00 25,5 23,6 3 1 8 4 S 0,0
20.09.2018 20:00:00 25,5 23,4 2 1 10 5 SE -
20.09.2018 19:00:00 25,9 23,8 6 4 11 6 ESE 0,0
20.09.2018 18:00:00 26,2 23,9 7 4 13 7 ESE 0,0
20.09.2018 17:00:00 26,4 23,9 9 5 13 7 ESE 0,0
20.09.2018 16:00:00 26,5 24,0 9 5 13 7 ESE 0,0
20.09.2018 15:00:00 26,5 24,2 8 5 13 7 ESE 0,0
20.09.2018 14:00:00 26,1 24,0 7 4 12 7 ESE -
20.09.2018 13:00:00 25,7 23,9 6 3 11 6 ESE 0,0
20.09.2018 12:00:00 25,7 24,1 5 3 9 5 ESE 0,0
20.09.2018 11:00:00 25,3 23,9 4 2 11 6 ESE 0,0
20.09.2018 10:00:00 24,9 23,5 6 3 13 7 E 0,0
20.09.2018 09:00:00 24,6 23,2 7 4 11 6 E 0,0
20.09.2018 08:00:00 24,2 21,9 1 0 5 3 NE -
20.09.2018 07:00:00 23,9 21,6 2 1 7 4 WNW 0,0
20.09.2018 06:00:00 23,6 21,3 4 2 6 4 NW 0,0
20.09.2018 05:00:00 23,6 21,3 3 2 6 3 NW 0,0

tt = temperature
td = dewpoint
ff = wind speed
fx = gusts
dd = wind direction
rr = precipitation

Next stations